Terminal Aerodrome Forecast
Issued by NWS Wilmington, OH

Current Version | Previous Version | Graphics & Text | Print | Product List | Glossary On
Versions: 1 2 3 4 5 6 7 8 9 10 11 12 13 14 15 16 17 18 19 20 21
000
FTUS41 KILN 250300 AAB
TAFCMH
TAF AMD
KCMH 250300Z 2503/2524 25019G26KT P6SM VCSH OVC020
      TEMPO 2503/2507 -SHRA SCT020 OVC035
     FM250800 24013G24KT P6SM VCSH OVC020
     FM251300 24012KT P6SM OVC020=

USA.gov is the U.S. government's official web portal to all federal, state and local government web resources and services.